createdAt,value
2019-04-21T16:41:52.104Z,21.30
2019-04-21T16:46:56.808Z,21.00
2019-04-21T16:52:10.051Z,20.90
2019-04-21T16:57:22.221Z,20.80
2019-04-21T17:02:28.287Z,20.70
2019-04-21T17:07:32.924Z,20.50
2019-04-21T17:12:37.524Z,20.50
2019-04-21T17:18:00.758Z,20.40
2019-04-21T17:22:49.475Z,20.40
2019-04-21T17:27:54.615Z,20.30
2019-04-21T17:32:59.551Z,20.20
2019-04-21T17:38:04.112Z,20.10
2019-04-21T17:43:12.842Z,19.90
2019-04-21T17:48:17.715Z,19.70
2019-04-21T17:53:31.540Z,19.60
2019-04-21T17:58:52.451Z,19.60
2019-04-21T18:03:58.414Z,19.50
2019-04-21T18:09:11.674Z,19.30
2019-04-21T18:13:49.552Z,19.30
2019-04-21T18:18:55.106Z,19.10
2019-04-21T18:24:10.836Z,19.00
2019-04-21T18:29:07.756Z,18.90
2019-04-21T18:34:32.049Z,18.80
2019-04-21T18:39:52.528Z,18.60
2019-04-21T18:45:34.513Z,18.50
2019-04-21T18:50:18.533Z,18.40
2019-04-21T18:55:32.303Z,18.30
2019-04-21T19:00:34.470Z,18.10
2019-04-21T19:05:38.888Z,18.10
2019-04-21T19:11:01.198Z,17.90
2019-04-21T19:21:10.137Z,17.80
2019-04-21T19:26:32.569Z,17.70
2019-04-21T19:31:31.942Z,17.60
2019-04-21T19:36:15.100Z,17.60
2019-04-21T19:41:32.837Z,17.50
2019-04-21T19:46:40.929Z,17.30
2019-04-21T19:51:43.824Z,17.30
2019-04-21T19:56:38.639Z,17.20
2019-04-21T20:01:46.242Z,17.10
2019-04-21T20:07:01.146Z,17.10
2019-04-21T20:12:10.630Z,17.00
2019-04-21T20:17:13.757Z,16.90
2019-04-21T20:22:09.371Z,16.80
2019-04-21T20:27:19.933Z,16.80
2019-04-21T20:32:37.860Z,16.60
2019-04-21T20:42:42.822Z,16.50
2019-04-21T20:47:44.734Z,16.40
2019-04-21T20:53:05.985Z,16.30
2019-04-21T20:58:03.139Z,16.20
2019-04-21T21:03:21.333Z,16.20
2019-04-21T21:08:26.139Z,16.10
2019-04-21T21:13:32.146Z,16.10
2019-04-21T21:19:00.868Z,16.10
2019-04-21T21:23:43.941Z,16.00
2019-04-21T21:28:40.167Z,15.80
2019-04-21T21:34:06.315Z,15.80
2019-04-21T21:39:01.287Z,15.70
2019-04-21T21:43:57.033Z,15.60
2019-04-21T21:49:04.029Z,15.60
2019-04-21T21:54:00.927Z,15.50
2019-04-21T21:59:11.663Z,15.40
2019-04-21T22:04:20.431Z,15.40
2019-04-21T22:09:18.614Z,15.30
2019-04-21T22:14:31.341Z,15.20
2019-04-21T22:19:51.245Z,15.10
2019-04-21T22:24:49.740Z,14.90
2019-04-21T22:29:47.751Z,14.90
2019-04-21T22:34:54.821Z,14.80
2019-04-21T22:40:09.568Z,14.70
2019-04-21T22:45:00.836Z,14.70
2019-04-21T22:50:08.536Z,14.60
2019-04-21T22:55:19.339Z,14.50
2019-04-21T23:00:22.338Z,14.50
2019-04-21T23:05:33.005Z,14.40
2019-04-21T23:10:34.937Z,14.30
2019-04-21T23:15:46.143Z,14.30
2019-04-21T23:21:02.864Z,14.10
2019-04-21T23:26:09.765Z,14.20
2019-04-21T23:31:18.312Z,14.00
2019-04-21T23:36:12.014Z,13.90
2019-04-21T23:41:11.323Z,13.80
2019-04-21T23:46:20.395Z,13.80
2019-04-21T23:51:35.452Z,13.70
2019-04-21T23:56:34.045Z,13.70
